sensor_id;sensor_type;location;lat;lon;timestamp;pressure;altitude;pressure_sealevel;temperature;humidity
74921;BME280;63483;47.384;8.860;2022-10-19T00:00:19;95452.03;;;11.51;49.73
74921;BME280;63483;47.384;8.860;2022-10-19T00:02:45;95445.78;;;11.52;49.58
74921;BME280;63483;47.384;8.860;2022-10-19T00:05:10;95452.03;;;11.51;49.76
74921;BME280;63483;47.384;8.860;2022-10-19T00:07:35;95454.66;;;11.51;49.48
74921;BME280;63483;47.384;8.860;2022-10-19T00:10:01;95451.34;;;11.49;49.39
74921;BME280;63483;47.384;8.860;2022-10-19T00:12:26;95437.44;;;11.48;49.56
74921;BME280;63483;47.384;8.860;2022-10-19T00:14:52;95441.88;;;11.48;49.90
74921;BME280;63483;47.384;8.860;2022-10-19T00:17:17;95442.03;;;11.46;49.83
74921;BME280;63483;47.384;8.860;2022-10-19T00:19:42;95436.94;;;11.45;50.03
74921;BME280;63483;47.384;8.860;2022-10-19T00:22:08;95430.88;;;11.44;49.87
74921;BME280;63483;47.384;8.860;2022-10-19T00:24:33;95441.34;;;11.44;49.98
74921;BME280;63483;47.384;8.860;2022-10-19T00:26:58;95433.66;;;11.42;49.87
74921;BME280;63483;47.384;8.860;2022-10-19T00:29:24;95424.13;;;11.41;49.87
74921;BME280;63483;47.384;8.860;2022-10-19T00:31:49;95435.63;;;11.40;49.88
74921;BME280;63483;47.384;8.860;2022-10-19T00:34:15;95435.81;;;11.39;49.78
74921;BME280;63483;47.384;8.860;2022-10-19T00:36:41;95438.44;;;11.39;49.94
74921;BME280;63483;47.384;8.860;2022-10-19T00:39:11;95432.34;;;11.38;49.75
74921;BME280;63483;47.384;8.860;2022-10-19T00:41:37;95434.31;;;11.36;49.84
74921;BME280;63483;47.384;8.860;2022-10-19T00:46:58;95435.63;;;11.32;49.71
74921;BME280;63483;47.384;8.860;2022-10-19T00:49:29;95432.19;;;11.32;49.84
74921;BME280;63483;47.384;8.860;2022-10-19T00:52:11;95428.75;;;11.31;50.18
74921;BME280;63483;47.384;8.860;2022-10-19T00:54:39;95432.53;;;11.29;50.22
74921;BME280;63483;47.384;8.860;2022-10-19T00:57:07;95425.63;;;11.28;50.05
74921;BME280;63483;47.384;8.860;2022-10-19T00:59:33;95431.69;;;11.28;50.09
74921;BME280;63483;47.384;8.860;2022-10-19T01:02:00;95427.44;;;11.27;49.86
74921;BME280;63483;47.384;8.860;2022-10-19T01:04:29;95424.84;;;11.27;49.77
74921;BME280;63483;47.384;8.860;2022-10-19T01:07:04;95422.38;;;11.25;49.67
74921;BME280;63483;47.384;8.860;2022-10-19T01:09:30;95419.09;;;11.23;49.97
74921;BME280;63483;47.384;8.860;2022-10-19T01:19:59;95408.78;;;11.14;49.75
74921;BME280;63483;47.384;8.860;2022-10-19T01:28:27;95408.13;;;11.03;49.69
74921;BME280;63483;47.384;8.860;2022-10-19T01:36:20;95404.34;;;10.98;49.73
74921;BME280;63483;47.384;8.860;2022-10-19T01:39:14;95392.22;;;10.97;49.72
74921;BME280;63483;47.384;8.860;2022-10-19T01:44:18;95390.09;;;10.92;49.36
74921;BME280;63483;47.384;8.860;2022-10-19T01:46:51;95384.34;;;10.88;49.39
74921;BME280;63483;47.384;8.860;2022-10-19T01:52:09;95381.22;;;10.85;49.32
74921;BME280;63483;47.384;8.860;2022-10-19T01:54:45;95380.56;;;10.83;49.38
74921;BME280;63483;47.384;8.860;2022-10-19T01:57:16;95377.28;;;10.81;49.44
74921;BME280;63483;47.384;8.860;2022-10-19T01:59:44;95366.16;;;10.79;49.50
74921;BME280;63483;47.384;8.860;2022-10-19T02:02:12;95370.75;;;10.77;49.61
74921;BME280;63483;47.384;8.860;2022-10-19T02:04:40;95376.97;;;10.76;49.63
74921;BME280;63483;47.384;8.860;2022-10-19T02:07:06;95383.16;;;10.74;49.88
74921;BME280;63483;47.384;8.860;2022-10-19T02:09:32;95376.31;;;10.73;49.72
74921;BME280;63483;47.384;8.860;2022-10-19T02:12:00;95374.66;;;10.72;49.55
74921;BME280;63483;47.384;8.860;2022-10-19T02:14:31;95374.66;;;10.72;49.56
74921;BME280;63483;47.384;8.860;2022-10-19T02:19:26;95375.00;;;10.69;49.45
74921;BME280;63483;47.384;8.860;2022-10-19T02:21:51;95367.28;;;10.68;49.40
74921;BME280;63483;47.384;8.860;2022-10-19T02:24:16;95370.88;;;10.67;49.84
74921;BME280;63483;47.384;8.860;2022-10-19T02:26:42;95364.84;;;10.66;49.60
74921;BME280;63483;47.384;8.860;2022-10-19T02:29:08;95369.41;;;10.64;49.55
74921;BME280;63483;47.384;8.860;2022-10-19T02:31:35;95359.94;;;10.63;49.43
74921;BME280;63483;47.384;8.860;2022-10-19T02:34:00;95362.72;;;10.62;49.51
74921;BME280;63483;47.384;8.860;2022-10-19T02:36:26;95361.22;;;10.59;49.42
74921;BME280;63483;47.384;8.860;2022-10-19T02:38:51;95356.97;;;10.58;49.55
74921;BME280;63483;47.384;8.860;2022-10-19T02:41:23;95356.97;;;10.58;49.79
74921;BME280;63483;47.384;8.860;2022-10-19T02:43:57;95350.06;;;10.57;49.46
74921;BME280;63483;47.384;8.860;2022-10-19T02:46:29;95352.06;;;10.55;49.81
74921;BME280;63483;47.384;8.860;2022-10-19T02:48:56;95354.03;;;10.53;49.63
74921;BME280;63483;47.384;8.860;2022-10-19T02:51:26;95343.53;;;10.53;49.30
74921;BME280;63483;47.384;8.860;2022-10-19T02:53:52;95345.50;;;10.51;49.23
74921;BME280;63483;47.384;8.860;2022-10-19T02:56:17;95345.50;;;10.51;49.35
74921;BME280;63483;47.384;8.860;2022-10-19T02:58:42;95347.47;;;10.49;49.39
74921;BME280;63483;47.384;8.860;2022-10-19T03:01:08;95354.66;;;10.47;49.28
74921;BME280;63483;47.384;8.860;2022-10-19T03:03:33;95356.63;;;10.45;49.40
74921;BME280;63483;47.384;8.860;2022-10-19T03:05:58;95362.66;;;10.45;49.71
74921;BME280;63483;47.384;8.860;2022-10-19T03:08:24;95358.06;;;10.39;49.23
74921;BME280;63483;47.384;8.860;2022-10-19T03:10:49;95359.88;;;10.38;49.50
74921;BME280;63483;47.384;8.860;2022-10-19T03:13:14;95359.22;;;10.36;49.45
74921;BME280;63483;47.384;8.860;2022-10-19T03:15:39;95355.94;;;10.34;49.49
74921;BME280;63483;47.384;8.860;2022-10-19T03:18:05;95363.81;;;10.34;49.37
74921;BME280;63483;47.384;8.860;2022-10-19T03:20:30;95355.94;;;10.34;49.55
74921;BME280;63483;47.384;8.860;2022-10-19T03:22:56;95356.28;;;10.31;49.49
74921;BME280;63483;47.384;8.860;2022-10-19T03:25:21;95359.69;;;10.32;49.69
74921;BME280;63483;47.384;8.860;2022-10-19T03:27:46;95362.31;;;10.32;49.78
74921;BME280;63483;47.384;8.860;2022-10-19T03:30:12;95353.00;;;10.29;49.79
74921;BME280;63483;47.384;8.860;2022-10-19T03:32:37;95353.81;;;10.30;49.63
74921;BME280;63483;47.384;8.860;2022-10-19T03:35:03;95353.97;;;10.28;49.76
74921;BME280;63483;47.384;8.860;2022-10-19T03:37:28;95347.56;;;10.23;49.55
74921;BME280;63483;47.384;8.860;2022-10-19T03:39:53;95340.03;;;10.19;49.53
74921;BME280;63483;47.384;8.860;2022-10-19T03:42:19;95333.31;;;10.17;49.46
74921;BME280;63483;47.384;8.860;2022-10-19T03:44:44;95342.19;;;10.16;49.53
74921;BME280;63483;47.384;8.860;2022-10-19T03:47:09;95339.03;;;10.12;49.79
74921;BME280;63483;47.384;8.860;2022-10-19T03:49:35;95346.09;;;10.12;49.66
74921;BME280;63483;47.384;8.860;2022-10-19T03:52:00;95340.34;;;10.08;49.50
74921;BME280;63483;47.384;8.860;2022-10-19T03:54:25;95350.00;;;10.08;49.78
74921;BME280;63483;47.384;8.860;2022-10-19T03:56:50;95346.41;;;10.09;49.65
74921;BME280;63483;47.384;8.860;2022-10-19T03:59:16;95351.63;;;10.09;49.85
74921;BME280;63483;47.384;8.860;2022-10-19T04:01:44;95345.56;;;10.08;49.83
74921;BME280;63483;47.384;8.860;2022-10-19T04:04:13;95348.19;;;10.08;50.01
74921;BME280;63483;47.384;8.860;2022-10-19T04:06:41;95345.09;;;10.05;50.43
74921;BME280;63483;47.384;8.860;2022-10-19T04:09:08;95341.81;;;10.02;50.56
74921;BME280;63483;47.384;8.860;2022-10-19T04:11:35;95338.19;;;10.03;50.90
74921;BME280;63483;47.384;8.860;2022-10-19T04:14:01;95339.84;;;10.05;50.75
74921;BME280;63483;47.384;8.860;2022-10-19T04:16:28;95339.84;;;10.05;50.54
74921;BME280;63483;47.384;8.860;2022-10-19T04:18:54;95337.38;;;10.03;50.23
74921;BME280;63483;47.384;8.860;2022-10-19T04:23:59;95331.34;;;10.02;50.04
74921;BME280;63483;47.384;8.860;2022-10-19T04:26:25;95340.97;;;10.02;50.25
74921;BME280;63483;47.384;8.860;2022-10-19T04:28:51;95334.13;;;10.01;50.39
74921;BME280;63483;47.384;8.860;2022-10-19T04:31:16;95329.84;;;10.00;50.18
74921;BME280;63483;47.384;8.860;2022-10-19T04:33:41;95330.84;;;9.99;50.29
74921;BME280;63483;47.384;8.860;2022-10-19T04:36:09;95328.38;;;9.97;50.17
74921;BME280;63483;47.384;8.860;2022-10-19T04:38:35;95323.47;;;9.94;50.12
74921;BME280;63483;47.384;8.860;2022-10-19T04:41:02;95336.88;;;9.91;50.17
74921;BME280;63483;47.384;8.860;2022-10-19T04:43:28;95323.13;;;9.89;50.33
74921;BME280;63483;47.384;8.860;2022-10-19T04:45:54;95333.59;;;9.89;50.38
74921;BME280;63483;47.384;8.860;2022-10-19T04:48:19;95324.91;;;9.89;50.20
74921;BME280;63483;47.384;8.860;2022-10-19T04:50:44;95322.13;;;9.90;50.01
74921;BME280;63483;47.384;8.860;2022-10-19T04:53:10;95326.56;;;9.90;50.12
74921;BME280;63483;47.384;8.860;2022-10-19T04:55:40;95326.56;;;9.90;50.03
74921;BME280;63483;47.384;8.860;2022-10-19T04:58:06;95325.75;;;9.89;50.16
74921;BME280;63483;47.384;8.860;2022-10-19T05:00:31;95323.13;;;9.89;50.04
74921;BME280;63483;47.384;8.860;2022-10-19T05:02:56;95313.09;;;9.84;50.08
74921;BME280;63483;47.384;8.860;2022-10-19T05:05:22;95324.72;;;9.82;50.23
74921;BME280;63483;47.384;8.860;2022-10-19T05:07:48;95323.06;;;9.81;50.47
74921;BME280;63483;47.384;8.860;2022-10-19T05:10:13;95318.78;;;9.80;50.45
74921;BME280;63483;47.384;8.860;2022-10-19T05:12:39;95321.25;;;9.81;50.48
74921;BME280;63483;47.384;8.860;2022-10-19T05:15:04;95328.28;;;9.81;50.20
74921;BME280;63483;47.384;8.860;2022-10-19T05:17:31;95312.59;;;9.81;49.71
74921;BME280;63483;47.384;8.860;2022-10-19T05:19:56;95303.25;;;9.78;50.18
74921;BME280;63483;47.384;8.860;2022-10-19T05:22:22;95321.09;;;9.75;50.33
74921;BME280;63483;47.384;8.860;2022-10-19T05:24:48;95310.94;;;9.72;50.57
74921;BME280;63483;47.384;8.860;2022-10-19T05:27:13;95312.88;;;9.69;50.12
74921;BME280;63483;47.384;8.860;2022-10-19T05:29:39;95308.63;;;9.68;49.67
74921;BME280;63483;47.384;8.860;2022-10-19T05:32:04;95299.47;;;9.64;49.64
74921;BME280;63483;47.384;8.860;2022-10-19T05:34:29;95298.78;;;9.62;49.73
74921;BME280;63483;47.384;8.860;2022-10-19T05:36:55;95293.56;;;9.62;49.60
74921;BME280;63483;47.384;8.860;2022-10-19T05:39:21;95293.56;;;9.62;49.80
74921;BME280;63483;47.384;8.860;2022-10-19T05:41:47;95290.94;;;9.62;49.71
74921;BME280;63483;47.384;8.860;2022-10-19T05:44:15;95295.19;;;9.63;49.64
74921;BME280;63483;47.384;8.860;2022-10-19T05:46:41;95286.38;;;9.64;49.69
74921;BME280;63483;47.384;8.860;2022-10-19T05:49:06;95294.38;;;9.63;49.62
74921;BME280;63483;47.384;8.860;2022-10-19T05:51:32;95281.47;;;9.61;49.94
74921;BME280;63483;47.384;8.860;2022-10-19T05:53:57;95286.03;;;9.59;50.03
74921;BME280;63483;47.384;8.860;2022-10-19T05:56:25;95287.03;;;9.58;50.05
74921;BME280;63483;47.384;8.860;2022-10-19T05:58:51;95290.59;;;9.57;49.96
74921;BME280;63483;47.384;8.860;2022-10-19T06:01:17;95285.69;;;9.54;49.98
74921;BME280;63483;47.384;8.860;2022-10-19T06:03:43;95293.53;;;9.54;50.22
74921;BME280;63483;47.384;8.860;2022-10-19T06:06:09;95287.63;;;9.52;50.36
74921;BME280;63483;47.384;8.860;2022-10-19T06:08:35;95294.50;;;9.53;50.26
74921;BME280;63483;47.384;8.860;2022-10-19T06:11:24;95295.84;;;9.57;50.43
74921;BME280;63483;47.384;8.860;2022-10-19T06:13:52;95294.19;;;9.56;50.35
74921;BME280;63483;47.384;8.860;2022-10-19T06:16:18;95306.28;;;9.57;50.74
74921;BME280;63483;47.384;8.860;2022-10-19T06:18:44;95307.94;;;9.58;50.59
74921;BME280;63483;47.384;8.860;2022-10-19T06:21:16;95297.16;;;9.61;50.66
74921;BME280;63483;47.384;8.860;2022-10-19T06:23:42;95306.78;;;9.61;50.55
74921;BME280;63483;47.384;8.860;2022-10-19T06:26:12;95309.25;;;9.62;50.57
74921;BME280;63483;47.384;8.860;2022-10-19T06:28:39;95312.84;;;9.61;50.75
74921;BME280;63483;47.384;8.860;2022-10-19T06:31:05;95311.22;;;9.60;50.77
74921;BME280;63483;47.384;8.860;2022-10-19T06:33:31;95314.47;;;9.62;50.92
74921;BME280;63483;47.384;8.860;2022-10-19T06:36:14;95315.16;;;9.64;51.13
74921;BME280;63483;47.384;8.860;2022-10-19T06:38:40;95310.91;;;9.63;51.06
74921;BME280;63483;47.384;8.860;2022-10-19T06:41:06;95315.97;;;9.65;51.09
74921;BME280;63483;47.384;8.860;2022-10-19T06:43:32;95317.63;;;9.66;51.06
74921;BME280;63483;47.384;8.860;2022-10-19T06:46:03;95310.56;;;9.66;51.09
74921;BME280;63483;47.384;8.860;2022-10-19T06:48:28;95316.81;;;9.65;51.00
74921;BME280;63483;47.384;8.860;2022-10-19T06:50:57;95320.72;;;9.69;51.21
74921;BME280;63483;47.384;8.860;2022-10-19T06:53:23;95328.56;;;9.69;51.44
74921;BME280;63483;47.384;8.860;2022-10-19T06:55:48;95329.25;;;9.72;51.29
74921;BME280;63483;47.384;8.860;2022-10-19T06:58:14;95328.25;;;9.73;51.52
74921;BME280;63483;47.384;8.860;2022-10-19T07:00:39;95325.63;;;9.73;51.69
74921;BME280;63483;47.384;8.860;2022-10-19T07:03:04;95326.31;;;9.75;51.58
74921;BME280;63483;47.384;8.860;2022-10-19T07:05:30;95334.66;;;9.78;52.07
74921;BME280;63483;47.384;8.860;2022-10-19T07:07:56;95332.56;;;9.82;52.30
74921;BME280;63483;47.384;8.860;2022-10-19T07:10:22;95340.59;;;9.89;52.59
74921;BME280;63483;47.384;8.860;2022-10-19T07:12:47;95333.94;;;9.94;52.87
74921;BME280;63483;47.384;8.860;2022-10-19T07:15:13;95329.03;;;9.99;52.85
74921;BME280;63483;47.384;8.860;2022-10-19T07:17:38;95325.13;;;10.03;53.13
74921;BME280;63483;47.384;8.860;2022-10-19T07:20:04;95316.94;;;10.07;53.35
74921;BME280;63483;47.384;8.860;2022-10-19T07:22:29;95321.69;;;10.11;53.32
74921;BME280;63483;47.384;8.860;2022-10-19T07:24:54;95332.34;;;10.18;53.58
74921;BME280;63483;47.384;8.860;2022-10-19T07:27:20;95328.59;;;10.20;53.69
74921;BME280;63483;47.384;8.860;2022-10-19T07:29:45;95323.84;;;10.24;53.83
74921;BME280;63483;47.384;8.860;2022-10-19T07:32:11;95324.38;;;10.28;53.99
74921;BME280;63483;47.384;8.860;2022-10-19T07:34:36;95331.91;;;10.31;54.19
74921;BME280;63483;47.384;8.860;2022-10-19T07:37:01;95331.72;;;10.32;54.26
74921;BME280;63483;47.384;8.860;2022-10-19T07:39:27;95335.66;;;10.36;54.71
74921;BME280;63483;47.384;8.860;2022-10-19T07:41:52;95329.44;;;10.37;54.97
74921;BME280;63483;47.384;8.860;2022-10-19T07:44:17;95325.53;;;10.42;54.99
74921;BME280;63483;47.384;8.860;2022-10-19T07:46:43;95326.84;;;10.46;55.18
74921;BME280;63483;47.384;8.860;2022-10-19T07:49:12;95324.22;;;10.54;55.25
74921;BME280;63483;47.384;8.860;2022-10-19T07:51:38;95321.94;;;10.59;55.40
74921;BME280;63483;47.384;8.860;2022-10-19T07:54:04;95324.06;;;10.64;55.60
74921;BME280;63483;47.384;8.860;2022-10-19T07:56:31;95319.31;;;10.67;55.42
74921;BME280;63483;47.384;8.860;2022-10-19T07:58:58;95324.88;;;10.72;55.69
74921;BME280;63483;47.384;8.860;2022-10-19T08:01:26;95312.09;;;10.78;55.83
74921;BME280;63483;47.384;8.860;2022-10-19T08:03:53;95316.03;;;10.82;55.68
74921;BME280;63483;47.384;8.860;2022-10-19T08:06:19;95314.06;;;10.84;55.89
74921;BME280;63483;47.384;8.860;2022-10-19T08:08:46;95308.50;;;10.87;55.57
74921;BME280;63483;47.384;8.860;2022-10-19T08:11:16;95306.22;;;10.92;56.28
74921;BME280;63483;47.384;8.860;2022-10-19T08:13:42;95311.78;;;10.89;56.38
74921;BME280;63483;47.384;8.860;2022-10-19T08:16:26;95299.63;;;10.88;56.92
74921;BME280;63483;47.384;8.860;2022-10-19T08:18:56;95302.97;;;10.90;57.95
74921;BME280;63483;47.384;8.860;2022-10-19T08:21:22;95306.88;;;10.86;57.92
74921;BME280;63483;47.384;8.860;2022-10-19T08:23:48;95309.81;;;10.74;58.30
74921;BME280;63483;47.384;8.860;2022-10-19T08:26:13;95304.06;;;10.87;58.86
74921;BME280;63483;47.384;8.860;2022-10-19T08:28:38;95307.88;;;10.93;58.78
74921;BME280;63483;47.384;8.860;2022-10-19T08:31:12;95305.22;;;11.01;58.97
74921;BME280;63483;47.384;8.860;2022-10-19T08:33:41;95311.44;;;11.08;58.24
74921;BME280;63483;47.384;8.860;2022-10-19T08:36:07;95302.94;;;11.06;58.15
74921;BME280;63483;47.384;8.860;2022-10-19T08:38:34;95311.28;;;11.10;58.65
74921;BME280;63483;47.384;8.860;2022-10-19T08:41:52;95302.25;;;11.04;58.59
74921;BME280;63483;47.384;8.860;2022-10-19T08:49:20;95301.59;;;11.19;58.64
74921;BME280;63483;47.384;8.860;2022-10-19T08:51:51;95301.63;;;11.11;58.92
74921;BME280;63483;47.384;8.860;2022-10-19T08:54:18;95297.03;;;11.04;59.40
74921;BME280;63483;47.384;8.860;2022-10-19T08:56:49;95312.75;;;11.13;59.21
74921;BME280;63483;47.384;8.860;2022-10-19T09:02:33;95302.25;;;11.13;58.45
74921;BME280;63483;47.384;8.860;2022-10-19T09:07:52;95280.94;;;11.16;57.73
74921;BME280;63483;47.384;8.860;2022-10-19T09:10:22;95280.94;;;11.16;57.56
74921;BME280;63483;47.384;8.860;2022-10-19T09:12:50;95279.31;;;11.15;57.68
74921;BME280;63483;47.384;8.860;2022-10-19T09:15:25;95270.66;;;11.06;57.92
74921;BME280;63483;47.384;8.860;2022-10-19T09:17:50;95276.72;;;11.06;58.23
74921;BME280;63483;47.384;8.860;2022-10-19T09:20:21;95278.69;;;11.04;57.97
74921;BME280;63483;47.384;8.860;2022-10-19T09:23:11;95280.31;;;10.89;58.75
74921;BME280;63483;47.384;8.860;2022-10-19T09:25:42;95269.88;;;10.97;58.65
74921;BME280;63483;47.384;8.860;2022-10-19T09:28:38;95280.28;;;11.22;57.99
74921;BME280;63483;47.384;8.860;2022-10-19T09:31:06;95268.53;;;11.01;58.38
74921;BME280;63483;47.384;8.860;2022-10-19T09:33:38;95264.94;;;11.02;58.87
74921;BME280;63483;47.384;8.860;2022-10-19T09:36:04;95267.22;;;11.14;58.88
74921;BME280;63483;47.384;8.860;2022-10-19T09:38:31;95271.44;;;11.23;58.39
74921;BME280;63483;47.384;8.860;2022-10-19T09:40:57;95262.09;;;11.20;58.23
74921;BME280;63483;47.384;8.860;2022-10-19T09:43:24;95258.31;;;11.23;59.13
74921;BME280;63483;47.384;8.860;2022-10-19T09:46:12;95258.91;;;11.41;58.83
74921;BME280;63483;47.384;8.860;2022-10-19T09:48:52;95251.34;;;11.47;58.30
74921;BME280;63483;47.384;8.860;2022-10-19T09:51:18;95254.88;;;11.62;58.01
74921;BME280;63483;47.384;8.860;2022-10-19T09:53:45;95251.44;;;11.70;58.00
74921;BME280;63483;47.384;8.860;2022-10-19T09:56:20;95248.94;;;11.68;58.30
74921;BME280;63483;47.384;8.860;2022-10-19T09:58:48;95245.59;;;11.83;57.92
74921;BME280;63483;47.384;8.860;2022-10-19T10:01:34;95250.53;;;11.86;57.44
74921;BME280;63483;47.384;8.860;2022-10-19T10:04:08;95245.59;;;11.83;57.46
74921;BME280;63483;47.384;8.860;2022-10-19T10:06:34;95246.13;;;11.86;57.62
74921;BME280;63483;47.384;8.860;2022-10-19T10:09:01;95237.22;;;11.87;57.35
74921;BME280;63483;47.384;8.860;2022-10-19T10:11:33;95242.25;;;11.97;57.13
74921;BME280;63483;47.384;8.860;2022-10-19T10:14:06;95232.56;;;11.98;57.37
74921;BME280;63483;47.384;8.860;2022-10-19T10:16:38;95230.78;;;11.98;56.72
74921;BME280;63483;47.384;8.860;2022-10-19T10:19:11;95232.19;;;12.09;56.41
74921;BME280;63483;47.384;8.860;2022-10-19T10:21:56;95233.13;;;11.85;56.69
74921;BME280;63483;47.384;8.860;2022-10-19T10:24:24;95235.63;;;11.86;57.07
74921;BME280;63483;47.384;8.860;2022-10-19T10:26:52;95250.19;;;11.89;57.54
74921;BME280;63483;47.384;8.860;2022-10-19T10:29:23;95255.28;;;12.13;56.00
74921;BME280;63483;47.384;8.860;2022-10-19T10:36:55;95239.19;;;11.85;56.48
74921;BME280;63483;47.384;8.860;2022-10-19T10:39:22;95236.13;;;11.73;56.75
74921;BME280;63483;47.384;8.860;2022-10-19T10:41:49;95229.03;;;11.82;56.44
74921;BME280;63483;47.384;8.860;2022-10-19T10:44:26;95236.50;;;11.70;56.89
74921;BME280;63483;47.384;8.860;2022-10-19T10:46:59;95233.00;;;11.86;56.75
74921;BME280;63483;47.384;8.860;2022-10-19T10:49:27;95229.47;;;11.63;56.79
74921;BME280;63483;47.384;8.860;2022-10-19T10:51:56;95224.44;;;11.53;57.08
74921;BME280;63483;47.384;8.860;2022-10-19T10:54:27;95222.16;;;11.81;56.46
74921;BME280;63483;47.384;8.860;2022-10-19T10:59:29;95215.16;;;11.73;56.96
74921;BME280;63483;47.384;8.860;2022-10-19T11:04:41;95209.13;;;11.96;56.71
74921;BME280;63483;47.384;8.860;2022-10-19T11:07:20;95209.56;;;11.76;56.58
74921;BME280;63483;47.384;8.860;2022-10-19T11:10:25;95202.00;;;11.82;56.41
74921;BME280;63483;47.384;8.860;2022-10-19T11:13:04;95198.34;;;11.83;56.76
74921;BME280;63483;47.384;8.860;2022-10-19T11:15:37;95189.78;;;11.66;57.00
74921;BME280;63483;47.384;8.860;2022-10-19T11:18:47;95188.28;;;11.94;56.42
74921;BME280;63483;47.384;8.860;2022-10-19T11:21:36;95190.84;;;12.26;55.74
74921;BME280;63483;47.384;8.860;2022-10-19T11:24:29;95192.16;;;11.75;57.37
74921;BME280;63483;47.384;8.860;2022-10-19T11:27:25;95179.47;;;12.34;55.70
74921;BME280;63483;47.384;8.860;2022-10-19T11:30:14;95177.06;;;12.47;55.51
74921;BME280;63483;47.384;8.860;2022-10-19T11:32:48;95172.13;;;12.29;56.50
74921;BME280;63483;47.384;8.860;2022-10-19T11:44:02;95168.41;;;12.76;54.38
74921;BME280;63483;47.384;8.860;2022-10-19T11:52:09;95159.91;;;12.36;55.56
74921;BME280;63483;47.384;8.860;2022-10-19T11:57:29;95154.59;;;12.59;54.88
74921;BME280;63483;47.384;8.860;2022-10-19T12:02:49;95140.13;;;12.78;54.55
74921;BME280;63483;47.384;8.860;2022-10-19T12:05:21;95129.97;;;12.90;53.93
74921;BME280;63483;47.384;8.860;2022-10-19T12:13:16;95121.81;;;13.15;51.97
74921;BME280;63483;47.384;8.860;2022-10-19T12:15:47;95118.38;;;13.36;51.84
74921;BME280;63483;47.384;8.860;2022-10-19T12:18:30;95123.59;;;13.14;52.70
74921;BME280;63483;47.384;8.860;2022-10-19T12:21:01;95122.09;;;13.42;52.09
74921;BME280;63483;47.384;8.860;2022-10-19T12:23:31;95113.69;;;13.31;52.09
74921;BME280;63483;47.384;8.860;2022-10-19T12:25:59;95122.94;;;13.27;52.21
74921;BME280;63483;47.384;8.860;2022-10-19T12:28:29;95112.56;;;13.41;51.69
74921;BME280;63483;47.384;8.860;2022-10-19T12:30:56;95111.50;;;13.35;51.97
74921;BME280;63483;47.384;8.860;2022-10-19T12:35:52;95094.47;;;13.52;51.94
74921;BME280;63483;47.384;8.860;2022-10-19T12:38:29;95095.13;;;13.76;51.21
74921;BME280;63483;47.384;8.860;2022-10-19T12:43:51;95089.00;;;13.69;51.65
74921;BME280;63483;47.384;8.860;2022-10-19T12:46:42;95084.41;;;13.78;52.14
74921;BME280;63483;47.384;8.860;2022-10-19T12:51:54;95079.34;;;13.76;51.34
74921;BME280;63483;47.384;8.860;2022-10-19T12:54:22;95070.31;;;13.85;51.93
74921;BME280;63483;47.384;8.860;2022-10-19T12:56:50;95076.22;;;13.87;51.23
74921;BME280;63483;47.384;8.860;2022-10-19T12:59:37;95070.75;;;13.89;51.54
74921;BME280;63483;47.384;8.860;2022-10-19T13:02:24;95070.03;;;14.02;50.87
74921;BME280;63483;47.384;8.860;2022-10-19T13:04:52;95072.56;;;13.88;51.40
74921;BME280;63483;47.384;8.860;2022-10-19T13:07:18;95069.16;;;13.95;52.80
74921;BME280;63483;47.384;8.860;2022-10-19T13:09:45;95057.50;;;14.04;51.74
74921;BME280;63483;47.384;8.860;2022-10-19T13:22:37;95040.75;;;14.18;51.02
74921;BME280;63483;47.384;8.860;2022-10-19T13:27:47;95032.31;;;14.23;50.89
74921;BME280;63483;47.384;8.860;2022-10-19T13:38:33;95023.03;;;14.34;51.20
74921;BME280;63483;47.384;8.860;2022-10-19T13:41:20;95027.22;;;14.21;50.94
74921;BME280;63483;47.384;8.860;2022-10-19T13:46:51;95011.31;;;14.36;51.24
74921;BME280;63483;47.384;8.860;2022-10-19T13:49:33;95012.72;;;14.39;51.21
74921;BME280;63483;47.384;8.860;2022-10-19T14:06:14;94997.09;;;14.37;51.37
74921;BME280;63483;47.384;8.860;2022-10-19T14:11:21;94983.34;;;14.42;51.21
74921;BME280;63483;47.384;8.860;2022-10-19T14:14:09;94995.94;;;14.12;52.07
74921;BME280;63483;47.384;8.860;2022-10-19T14:19:28;94982.06;;;14.25;51.60
74921;BME280;63483;47.384;8.860;2022-10-19T14:21:56;94979.56;;;14.16;51.91
74921;BME280;63483;47.384;8.860;2022-10-19T14:24:32;94982.66;;;14.27;51.71
74921;BME280;63483;47.384;8.860;2022-10-19T14:27:00;94991.41;;;14.34;51.96
74921;BME280;63483;47.384;8.860;2022-10-19T14:29:26;94990.72;;;14.53;51.16
74921;BME280;63483;47.384;8.860;2022-10-19T14:31:51;94989.25;;;14.44;52.11
74921;BME280;63483;47.384;8.860;2022-10-19T14:34:18;94976.66;;;14.46;51.64
74921;BME280;63483;47.384;8.860;2022-10-19T14:36:48;94979.84;;;14.70;51.47
74921;BME280;63483;47.384;8.860;2022-10-19T14:39:28;94975.75;;;14.61;51.70
74921;BME280;63483;47.384;8.860;2022-10-19T14:41:54;94976.56;;;14.61;51.56
74921;BME280;63483;47.384;8.860;2022-10-19T14:47:00;94985.06;;;14.56;51.98
74921;BME280;63483;47.384;8.860;2022-10-19T14:49:26;94977.00;;;14.71;51.34
74921;BME280;63483;47.384;8.860;2022-10-19T14:51:56;94982.25;;;14.65;51.86
74921;BME280;63483;47.384;8.860;2022-10-19T14:57:02;94979.38;;;14.60;52.56
74921;BME280;63483;47.384;8.860;2022-10-19T14:59:44;94986.69;;;14.64;52.48
74921;BME280;63483;47.384;8.860;2022-10-19T15:04:41;94971.75;;;14.78;52.25
74921;BME280;63483;47.384;8.860;2022-10-19T15:07:24;94974.59;;;14.77;52.45
74921;BME280;63483;47.384;8.860;2022-10-19T15:09:55;94975.41;;;14.70;52.47
74921;BME280;63483;47.384;8.860;2022-10-19T15:12:27;94977.44;;;14.75;52.18
74921;BME280;63483;47.384;8.860;2022-10-19T15:14:53;94983.09;;;14.72;52.70
74921;BME280;63483;47.384;8.860;2022-10-19T15:17:28;94976.59;;;14.68;53.22
74921;BME280;63483;47.384;8.860;2022-10-19T15:19:55;94987.94;;;14.62;53.42
74921;BME280;63483;47.384;8.860;2022-10-19T15:25:00;94974.16;;;14.66;53.02
74921;BME280;63483;47.384;8.860;2022-10-19T15:27:35;94966.75;;;14.48;53.51
74921;BME280;63483;47.384;8.860;2022-10-19T15:32:41;94984.25;;;14.63;53.03
74921;BME280;63483;47.384;8.860;2022-10-19T15:35:31;94982.28;;;14.71;52.96
74921;BME280;63483;47.384;8.860;2022-10-19T15:38:06;94976.41;;;14.76;52.49